createdAt,value
2022-07-31T00:01:32.619Z,12.90
2022-07-31T00:03:59.310Z,8.90
2022-07-31T00:06:26.013Z,5.95
2022-07-31T00:08:52.675Z,11.05
2022-07-31T00:11:19.272Z,7.57
2022-07-31T00:13:57.420Z,6.90
2022-07-31T00:16:25.841Z,6.55
2022-07-31T00:18:52.628Z,7.00
2022-07-31T00:21:19.304Z,5.93
2022-07-31T00:23:45.822Z,5.97
2022-07-31T00:26:12.386Z,5.43
2022-07-31T00:28:38.961Z,8.85
2022-07-31T00:31:05.551Z,7.20
2022-07-31T00:33:32.065Z,6.82
2022-07-31T00:35:58.625Z,9.45
2022-07-31T00:38:27.004Z,5.55
2022-07-31T00:40:54.137Z,5.40
2022-07-31T00:43:20.735Z,8.93
2022-07-31T00:45:50.541Z,7.63
2022-07-31T00:48:22.890Z,5.95
2022-07-31T00:50:50.946Z,9.63
2022-07-31T00:53:17.517Z,12.40
2022-07-31T00:55:51.404Z,6.28
2022-07-31T00:58:19.955Z,12.05
2022-07-31T01:00:46.818Z,6.95
2022-07-31T01:03:14.340Z,12.23
2022-07-31T01:05:41.745Z,7.10
2022-07-31T01:08:08.433Z,5.63
2022-07-31T01:10:54.302Z,8.50
2022-07-31T01:13:30.287Z,7.38
2022-07-31T01:16:01.082Z,8.75
2022-07-31T01:18:31.436Z,6.72
2022-07-31T01:21:03.193Z,9.40
2022-07-31T01:23:55.197Z,7.20
2022-07-31T01:26:37.940Z,7.32
2022-07-31T01:29:25.737Z,8.93
2022-07-31T01:32:01.372Z,7.40
2022-07-31T01:34:44.761Z,7.15
2022-07-31T01:37:18.039Z,9.93
2022-07-31T01:39:50.710Z,4.72
2022-07-31T01:42:19.713Z,9.45
2022-07-31T01:44:51.539Z,6.72
2022-07-31T01:47:21.427Z,8.50
2022-07-31T01:49:51.612Z,7.07
2022-07-31T01:52:19.223Z,9.48
2022-07-31T01:54:47.608Z,12.13
2022-07-31T01:57:18.480Z,14.75
2022-07-31T01:59:47.852Z,6.45
2022-07-31T02:02:16.158Z,7.40
2022-07-31T02:04:44.157Z,8.75
2022-07-31T02:07:11.075Z,11.55
2022-07-31T02:09:37.926Z,8.65
2022-07-31T02:12:33.927Z,10.80
2022-07-31T02:15:03.706Z,8.77
2022-07-31T02:17:30.439Z,6.75
2022-07-31T02:20:00.406Z,8.45
2022-07-31T02:22:27.539Z,7.93
2022-07-31T02:24:54.048Z,10.07
2022-07-31T02:27:58.064Z,9.85
2022-07-31T02:30:10.769Z,12.02
2022-07-31T02:32:39.193Z,8.63
2022-07-31T02:35:07.824Z,9.50
2022-07-31T02:37:37.399Z,7.80
2022-07-31T02:40:05.730Z,9.35
2022-07-31T02:42:32.877Z,9.93
2022-07-31T02:45:00.857Z,7.43
2022-07-31T02:47:28.865Z,8.80
2022-07-31T02:49:57.979Z,8.55
2022-07-31T02:52:25.236Z,8.48
2022-07-31T02:54:52.833Z,11.82
2022-07-31T02:57:19.368Z,11.57
2022-07-31T02:59:45.886Z,12.18
2022-07-31T03:02:12.465Z,9.77
2022-07-31T03:04:39.031Z,21.38
2022-07-31T03:07:05.580Z,8.80
2022-07-31T03:09:32.060Z,7.32
2022-07-31T03:11:58.727Z,11.85
2022-07-31T03:14:33.132Z,9.00
2022-07-31T03:17:00.479Z,9.55
2022-07-31T03:19:28.651Z,8.77
2022-07-31T03:21:56.336Z,9.40
2022-07-31T03:24:23.005Z,9.07
2022-07-31T03:26:49.615Z,8.75
2022-07-31T03:29:36.128Z,7.50
2022-07-31T03:32:02.769Z,9.65
2022-07-31T03:34:29.432Z,10.13
2022-07-31T03:36:55.906Z,9.63
2022-07-31T03:39:22.401Z,9.75
2022-07-31T03:41:50.407Z,9.50
2022-07-31T03:44:17.029Z,13.95
2022-07-31T03:46:43.590Z,9.45
2022-07-31T03:49:10.317Z,7.80
2022-07-31T03:51:37.089Z,9.93
2022-07-31T03:54:03.920Z,8.68
2022-07-31T03:56:31.324Z,7.90
2022-07-31T03:58:57.913Z,10.65
2022-07-31T04:01:26.951Z,8.75
2022-07-31T04:04:13.621Z,10.85
2022-07-31T04:06:40.739Z,12.02
2022-07-31T04:09:18.409Z,10.93
2022-07-31T04:11:45.958Z,9.30
2022-07-31T04:14:12.574Z,10.88
2022-07-31T04:16:39.051Z,9.52
2022-07-31T04:19:05.544Z,10.00
2022-07-31T04:21:32.047Z,11.20
2022-07-31T04:23:58.736Z,8.35
2022-07-31T04:26:26.391Z,8.82
2022-07-31T04:28:53.201Z,7.93
2022-07-31T04:31:19.841Z,9.52
2022-07-31T04:33:48.927Z,9.20
2022-07-31T04:36:30.107Z,10.55
2022-07-31T04:38:58.718Z,9.98
2022-07-31T04:41:25.247Z,10.30
2022-07-31T04:43:52.196Z,7.75
2022-07-31T04:46:18.664Z,11.13
2022-07-31T04:48:45.297Z,7.75
2022-07-31T04:51:23.404Z,7.53
2022-07-31T04:53:51.168Z,8.80
2022-07-31T04:56:34.028Z,10.10
2022-07-31T04:59:06.276Z,9.25
2022-07-31T05:01:33.605Z,8.70
2022-07-31T05:04:01.801Z,10.13
2022-07-31T05:06:42.623Z,12.85
2022-07-31T05:09:18.356Z,8.95
2022-07-31T05:11:46.795Z,8.68
2022-07-31T05:14:15.147Z,12.45
2022-07-31T05:16:41.892Z,8.60
2022-07-31T05:19:14.791Z,11.60
2022-07-31T05:21:51.382Z,9.52
2022-07-31T05:24:22.681Z,9.02
2022-07-31T05:27:03.438Z,10.70
2022-07-31T05:29:30.380Z,11.35
2022-07-31T05:32:00.651Z,11.75
2022-07-31T05:34:30.061Z,9.30
2022-07-31T05:36:58.378Z,8.98
2022-07-31T05:39:25.280Z,9.48
2022-07-31T05:41:52.802Z,12.57
2022-07-31T05:44:19.538Z,10.35
2022-07-31T05:46:46.144Z,11.23
2022-07-31T05:49:12.860Z,10.73
2022-07-31T05:51:43.146Z,8.35
2022-07-31T05:54:09.734Z,11.30
2022-07-31T05:56:36.236Z,10.32
2022-07-31T05:59:02.743Z,7.55
2022-07-31T06:01:29.328Z,12.82
2022-07-31T06:03:55.905Z,11.30
2022-07-31T06:06:22.425Z,14.07
2022-07-31T06:08:49.026Z,11.50
2022-07-31T06:11:15.516Z,12.68
2022-07-31T06:13:43.382Z,8.73
2022-07-31T06:16:16.083Z,12.63
2022-07-31T06:18:42.992Z,13.15
2022-07-31T06:23:37.110Z,13.20
2022-07-31T06:26:04.086Z,13.82
2022-07-31T06:28:48.526Z,17.75
2022-07-31T06:31:20.478Z,12.77
2022-07-31T06:33:48.575Z,11.18
2022-07-31T06:36:16.346Z,15.40
2022-07-31T06:38:42.988Z,13.05
2022-07-31T06:41:09.772Z,11.70
2022-07-31T06:43:36.491Z,12.98
2022-07-31T06:46:03.080Z,15.23
2022-07-31T06:48:30.178Z,16.23
2022-07-31T06:51:29.076Z,14.43
2022-07-31T06:53:43.463Z,20.27
2022-07-31T06:56:10.147Z,7.68
2022-07-31T06:58:36.700Z,14.00
2022-07-31T07:01:03.401Z,13.60
2022-07-31T07:03:30.082Z,19.55
2022-07-31T07:05:56.744Z,18.40
2022-07-31T07:08:23.392Z,19.65
2022-07-31T07:10:49.999Z,16.30
2022-07-31T07:13:16.591Z,13.68
2022-07-31T07:15:43.197Z,8.43
2022-07-31T07:18:09.834Z,12.82
2022-07-31T07:20:36.521Z,17.63
2022-07-31T07:23:03.549Z,15.95
2022-07-31T07:25:30.250Z,11.85
2022-07-31T07:27:56.893Z,17.55
2022-07-31T07:30:23.940Z,7.15
2022-07-31T07:32:50.570Z,20.88
2022-07-31T07:35:17.094Z,16.67
2022-07-31T07:37:43.561Z,9.80
2022-07-31T07:40:10.463Z,16.20
2022-07-31T07:42:37.200Z,15.02
2022-07-31T07:45:08.138Z,9.85
2022-07-31T07:48:02.367Z,21.33
2022-07-31T07:50:22.775Z,11.32
2022-07-31T07:52:54.025Z,3.45
2022-07-31T07:55:20.597Z,10.10
2022-07-31T07:57:47.117Z,6.65
2022-07-31T08:00:14.164Z,18.33
2022-07-31T08:02:42.592Z,14.15
2022-07-31T08:05:09.907Z,13.82
2022-07-31T08:07:42.168Z,5.15
2022-07-31T08:10:10.080Z,3.65
2022-07-31T08:12:37.701Z,8.02
2022-07-31T08:15:05.668Z,5.03
2022-07-31T08:17:32.224Z,8.60
2022-07-31T08:19:58.833Z,7.60
2022-07-31T08:22:25.424Z,8.82
2022-07-31T08:24:51.996Z,3.80
2022-07-31T08:27:39.432Z,6.22
2022-07-31T08:30:07.846Z,4.45
2022-07-31T08:32:34.709Z,9.70
2022-07-31T08:35:01.289Z,6.13
2022-07-31T08:37:52.363Z,3.58
2022-07-31T08:40:14.448Z,4.60
2022-07-31T08:42:41.910Z,9.82
2022-07-31T08:45:09.339Z,7.10
2022-07-31T08:47:36.510Z,5.95
2022-07-31T08:50:05.502Z,5.47
2022-07-31T08:52:34.556Z,6.05
2022-07-31T08:55:06.170Z,7.93
2022-07-31T08:57:32.954Z,1.92
2022-07-31T08:59:59.456Z,1.17
2022-07-31T09:02:26.208Z,2.00
2022-07-31T09:04:53.063Z,4.65
2022-07-31T09:07:19.741Z,3.95
2022-07-31T09:09:51.595Z,3.03
2022-07-31T09:12:33.275Z,11.50
2022-07-31T09:15:00.973Z,9.07
2022-07-31T09:17:36.747Z,9.50
2022-07-31T09:20:05.691Z,7.70
2022-07-31T09:22:32.436Z,11.98
2022-07-31T09:25:12.118Z,9.32
2022-07-31T09:27:39.427Z,9.90
2022-07-31T09:30:07.492Z,7.90
2022-07-31T09:32:34.277Z,4.30
2022-07-31T09:35:09.893Z,4.68
2022-07-31T09:37:37.031Z,9.80
2022-07-31T09:40:04.278Z,7.13
2022-07-31T09:42:39.054Z,6.22
2022-07-31T09:45:19.775Z,7.53
2022-07-31T09:47:47.034Z,7.15
2022-07-31T09:50:14.425Z,6.78
2022-07-31T09:52:41.009Z,5.32
2022-07-31T09:55:16.313Z,9.55
2022-07-31T09:58:00.277Z,6.97
2022-07-31T10:00:27.939Z,4.55
2022-07-31T10:02:55.982Z,8.75
2022-07-31T10:05:27.560Z,4.03
2022-07-31T10:07:57.340Z,3.10
2022-07-31T10:10:24.658Z,7.18
2022-07-31T10:12:54.205Z,13.70
2022-07-31T10:15:23.044Z,2.58
2022-07-31T10:17:51.605Z,5.93
2022-07-31T10:20:22.077Z,8.00
2022-07-31T10:22:53.483Z,6.43
2022-07-31T10:25:29.161Z,3.80
2022-07-31T10:27:57.305Z,1.67
2022-07-31T10:30:28.097Z,9.10
2022-07-31T10:32:56.255Z,5.07
2022-07-31T10:35:22.945Z,5.72
2022-07-31T10:38:11.743Z,3.78
2022-07-31T10:41:03.758Z,8.50
2022-07-31T10:43:47.016Z,9.35
2022-07-31T10:46:13.519Z,4.22
2022-07-31T10:48:51.309Z,10.13
2022-07-31T10:51:18.060Z,3.33
2022-07-31T10:54:05.594Z,4.95
2022-07-31T10:56:43.537Z,11.63
2022-07-31T10:59:11.204Z,6.13
2022-07-31T11:01:52.869Z,6.55
2022-07-31T11:04:28.134Z,7.95
2022-07-31T11:06:54.774Z,8.77
2022-07-31T11:09:25.989Z,9.30
2022-07-31T11:11:53.867Z,9.30
2022-07-31T11:14:38.870Z,8.68
2022-07-31T11:17:05.926Z,11.20
2022-07-31T11:19:43.870Z,6.43
2022-07-31T11:22:30.898Z,7.85
2022-07-31T11:25:00.590Z,6.53
2022-07-31T11:27:34.459Z,7.47
2022-07-31T11:30:12.993Z,6.85
2022-07-31T11:32:41.316Z,6.80
2022-07-31T11:35:08.956Z,5.28
2022-07-31T11:37:46.527Z,6.03
2022-07-31T11:40:25.799Z,6.88
2022-07-31T11:43:23.137Z,4.82
2022-07-31T11:45:49.956Z,9.48
2022-07-31T11:50:47.883Z,13.65
2022-07-31T11:53:14.933Z,4.93
2022-07-31T11:55:44.563Z,9.48
2022-07-31T11:58:11.313Z,10.40
2022-07-31T12:00:38.105Z,9.07
2022-07-31T12:03:05.693Z,9.30
2022-07-31T12:05:37.926Z,9.88
2022-07-31T12:08:06.707Z,9.82
2022-07-31T12:10:33.399Z,9.85
2022-07-31T12:13:00.674Z,4.35
2022-07-31T12:15:27.269Z,10.88
2022-07-31T12:18:02.302Z,10.43
2022-07-31T12:20:36.743Z,15.85
2022-07-31T12:23:06.180Z,9.45
2022-07-31T12:25:43.396Z,12.18
2022-07-31T12:28:10.308Z,10.32
2022-07-31T12:30:37.198Z,3.22
2022-07-31T12:33:12.396Z,6.00
2022-07-31T12:35:56.378Z,4.70
2022-07-31T12:38:45.166Z,6.63
2022-07-31T12:41:14.147Z,10.73
2022-07-31T12:43:51.557Z,6.93
2022-07-31T12:46:20.737Z,11.48
2022-07-31T12:48:47.261Z,7.03
2022-07-31T12:51:14.042Z,6.57
2022-07-31T12:53:40.648Z,2.33
2022-07-31T12:56:11.877Z,7.88
2022-07-31T12:58:38.523Z,8.20
2022-07-31T13:01:05.027Z,8.35
2022-07-31T13:03:45.351Z,7.80
2022-07-31T13:06:13.560Z,6.13
2022-07-31T13:08:40.172Z,7.28
2022-07-31T13:11:06.702Z,9.07
2022-07-31T13:13:33.288Z,7.53
2022-07-31T13:15:59.845Z,1.27
2022-07-31T13:18:26.457Z,5.75
2022-07-31T13:20:52.976Z,10.65
2022-07-31T13:23:21.379Z,6.53
2022-07-31T13:25:48.000Z,8.98
2022-07-31T13:28:14.524Z,7.80
2022-07-31T13:30:41.587Z,6.97
2022-07-31T13:33:08.193Z,5.97
2022-07-31T13:35:34.774Z,8.88
2022-07-31T13:38:01.331Z,7.47
2022-07-31T13:40:46.382Z,6.97
2022-07-31T13:43:13.156Z,8.55
2022-07-31T13:45:39.690Z,8.02
2022-07-31T13:48:09.318Z,7.80
2022-07-31T13:50:37.606Z,7.25
2022-07-31T13:53:05.002Z,4.90
2022-07-31T13:55:32.245Z,7.65
2022-07-31T13:57:59.448Z,9.18
2022-07-31T14:00:28.455Z,7.40
2022-07-31T14:02:55.048Z,7.85
2022-07-31T14:05:21.617Z,8.82
2022-07-31T14:07:52.039Z,9.50
2022-07-31T14:10:20.782Z,7.53
2022-07-31T14:12:48.511Z,8.25
2022-07-31T14:15:15.217Z,3.92
2022-07-31T14:17:41.842Z,9.10
2022-07-31T14:20:09.355Z,6.15
2022-07-31T14:22:35.973Z,6.57
2022-07-31T14:25:02.557Z,4.43
2022-07-31T14:27:29.140Z,2.35
2022-07-31T14:29:55.772Z,7.13
2022-07-31T14:32:22.744Z,5.50
2022-07-31T14:34:50.258Z,8.23
2022-07-31T14:37:17.135Z,6.07
2022-07-31T14:39:43.836Z,7.47
2022-07-31T14:42:11.383Z,9.15
2022-07-31T14:44:41.577Z,7.43
2022-07-31T14:47:09.280Z,4.72
2022-07-31T14:50:08.977Z,7.35
2022-07-31T14:52:22.630Z,12.23
2022-07-31T14:54:49.190Z,5.07
2022-07-31T14:57:22.255Z,11.88
2022-07-31T14:59:50.106Z,6.35
2022-07-31T15:02:21.783Z,14.95
2022-07-31T15:04:49.136Z,8.20
2022-07-31T15:10:06.579Z,3.72
2022-07-31T15:12:33.688Z,2.90
2022-07-31T15:15:00.383Z,10.52
2022-07-31T15:17:27.193Z,5.90
2022-07-31T15:19:53.814Z,8.02
2022-07-31T15:22:20.326Z,6.88
2022-07-31T15:24:48.892Z,6.53
2022-07-31T15:27:21.741Z,6.65
2022-07-31T15:30:05.823Z,8.85
2022-07-31T15:35:06.268Z,8.68
2022-07-31T15:37:37.293Z,6.95
2022-07-31T15:40:06.131Z,7.80
2022-07-31T15:42:33.426Z,5.68
2022-07-31T15:45:00.113Z,6.30
2022-07-31T15:47:26.660Z,7.60
2022-07-31T15:49:53.292Z,6.72
2022-07-31T15:52:20.007Z,13.02
2022-07-31T15:54:47.053Z,11.15
2022-07-31T15:57:14.642Z,8.82
2022-07-31T15:59:41.669Z,11.05
2022-07-31T17:13:23.078Z,16.60
2022-07-31T17:15:49.684Z,14.93
2022-07-31T17:18:16.180Z,14.70
2022-07-31T17:20:46.844Z,10.50
2022-07-31T17:23:13.358Z,5.25
2022-07-31T17:25:40.020Z,11.23
2022-07-31T17:28:10.135Z,9.77
2022-07-31T17:30:39.113Z,9.20
2022-07-31T17:33:05.626Z,8.20
2022-07-31T17:35:32.166Z,9.45
2022-07-31T17:37:58.635Z,15.43
2022-07-31T17:40:42.451Z,10.20
2022-07-31T17:43:09.813Z,10.38
2022-07-31T17:45:59.439Z,9.38
2022-07-31T17:48:25.007Z,11.10
2022-07-31T17:50:54.240Z,9.35
2022-07-31T17:53:21.048Z,10.52
2022-07-31T17:55:49.463Z,11.50
2022-07-31T17:58:16.781Z,14.85
2022-07-31T18:00:43.453Z,14.40
2022-07-31T18:03:10.210Z,14.02
2022-07-31T18:05:37.691Z,13.77
2022-07-31T18:08:04.513Z,17.20
2022-07-31T18:10:52.259Z,16.08
2022-07-31T18:13:17.579Z,14.40
2022-07-31T18:15:44.232Z,14.82
2022-07-31T18:18:10.851Z,11.45
2022-07-31T18:20:38.139Z,14.23
2022-07-31T18:23:04.747Z,16.33
2022-07-31T18:25:36.911Z,18.48
2022-07-31T18:28:03.501Z,14.85
2022-07-31T18:30:30.464Z,15.88
2022-07-31T18:33:00.363Z,15.90
2022-07-31T18:35:26.909Z,21.25
2022-07-31T18:37:53.484Z,24.15
2022-07-31T18:40:19.985Z,22.23
2022-07-31T18:42:46.484Z,21.77
2022-07-31T18:45:13.055Z,19.05
2022-07-31T18:47:39.560Z,16.77
2022-07-31T18:51:02.968Z,13.82
2022-07-31T18:52:52.919Z,15.10
2022-07-31T18:55:19.494Z,14.18
2022-07-31T18:57:46.015Z,13.45
2022-07-31T19:00:12.894Z,13.57
2022-07-31T19:02:39.428Z,13.68
2022-07-31T19:05:07.437Z,14.05
2022-07-31T19:07:40.374Z,17.30
2022-07-31T19:10:07.878Z,15.50
2022-07-31T19:12:35.464Z,20.90
2022-07-31T19:15:03.271Z,15.85
2022-07-31T19:17:44.660Z,15.32
2022-07-31T19:20:12.594Z,16.45
2022-07-31T19:22:58.967Z,16.45
2022-07-31T19:25:25.679Z,17.15
2022-07-31T19:27:52.157Z,16.48
2022-07-31T19:30:18.702Z,15.25
2022-07-31T19:32:45.223Z,14.77
2022-07-31T19:35:23.784Z,20.10
2022-07-31T19:38:01.176Z,17.35
2022-07-31T19:40:28.838Z,16.65
2022-07-31T19:42:59.574Z,18.63
2022-07-31T19:45:26.759Z,18.77
2022-07-31T19:47:53.589Z,15.82
2022-07-31T19:50:20.107Z,16.65
2022-07-31T19:52:47.836Z,23.65
2022-07-31T19:55:15.171Z,16.08
2022-07-31T19:57:42.810Z,18.30
2022-07-31T20:00:11.779Z,19.45
2022-07-31T20:02:39.866Z,19.17
2022-07-31T20:05:07.292Z,16.65
2022-07-31T20:07:34.067Z,19.65
2022-07-31T20:10:01.815Z,20.00
2022-07-31T20:12:28.350Z,22.98
2022-07-31T20:14:54.842Z,19.50
2022-07-31T20:17:21.341Z,17.60
2022-07-31T20:20:02.998Z,17.90
2022-07-31T20:22:34.368Z,17.50
2022-07-31T20:25:00.946Z,19.10
2022-07-31T20:27:38.437Z,21.05
2022-07-31T20:30:08.975Z,18.02
2022-07-31T20:32:38.115Z,16.52
2022-07-31T20:35:32.816Z,18.23
2022-07-31T20:38:02.285Z,16.63
2022-07-31T20:40:28.899Z,20.70
2022-07-31T20:42:55.490Z,20.20
2022-07-31T20:45:23.292Z,24.58
2022-07-31T20:47:52.008Z,22.58
2022-07-31T20:50:19.267Z,18.83
2022-07-31T20:52:48.512Z,23.38
2022-07-31T20:55:15.260Z,20.85
2022-07-31T20:57:42.385Z,23.98
2022-07-31T21:00:09.656Z,21.42
2022-07-31T21:02:36.167Z,20.15
2022-07-31T21:05:05.724Z,16.23
2022-07-31T21:07:32.201Z,19.67
2022-07-31T21:09:58.678Z,20.15
2022-07-31T21:12:29.518Z,22.75
2022-07-31T21:14:56.253Z,18.70
2022-07-31T21:17:22.721Z,22.13
2022-07-31T21:19:49.201Z,17.38
2022-07-31T21:22:15.678Z,15.60
2022-07-31T21:24:42.514Z,20.40
2022-07-31T21:27:12.231Z,21.67
2022-07-31T21:29:38.982Z,20.17
2022-07-31T21:32:06.473Z,23.92
2022-07-31T21:34:33.629Z,14.30
2022-07-31T21:37:01.335Z,27.52
2022-07-31T21:39:28.895Z,23.80
2022-07-31T21:41:55.723Z,24.30
2022-07-31T21:44:22.341Z,23.00
2022-07-31T21:46:53.862Z,20.90
2022-07-31T21:49:22.589Z,23.95
2022-07-31T21:51:49.443Z,22.02
2022-07-31T21:54:17.858Z,21.15
2022-07-31T21:56:44.468Z,24.42
2022-07-31T21:59:12.831Z,24.33
2022-07-31T22:01:39.439Z,23.08
2022-07-31T22:04:34.361Z,21.17
2022-07-31T22:07:20.082Z,27.50
2022-07-31T22:09:46.544Z,25.60
2022-07-31T22:12:13.127Z,29.17
2022-07-31T22:14:39.576Z,24.70
2022-07-31T22:17:09.708Z,25.23
2022-07-31T22:19:44.315Z,25.58
2022-07-31T22:22:14.361Z,21.60
2022-07-31T22:24:41.189Z,25.85
2022-07-31T22:27:26.467Z,21.63
2022-07-31T22:29:53.364Z,24.67
2022-07-31T22:32:19.838Z,26.83
2022-07-31T22:34:46.473Z,23.42
2022-07-31T22:37:13.431Z,24.08
2022-07-31T22:39:40.154Z,26.00
2022-07-31T22:42:07.207Z,25.10
2022-07-31T22:44:36.992Z,21.63
2022-07-31T22:47:03.773Z,25.92
2022-07-31T22:49:30.485Z,26.08
2022-07-31T22:51:57.138Z,29.90
2022-07-31T22:54:23.714Z,24.33
2022-07-31T22:56:50.253Z,23.95
2022-07-31T22:59:16.851Z,20.05
2022-07-31T23:01:43.346Z,24.30
2022-07-31T23:04:09.833Z,19.85
2022-07-31T23:06:36.367Z,25.35
2022-07-31T23:09:03.253Z,24.27
2022-07-31T23:11:30.071Z,26.90
2022-07-31T23:13:56.636Z,24.63
2022-07-31T23:16:23.152Z,26.98
2022-07-31T23:18:51.384Z,27.05
2022-07-31T23:21:18.863Z,27.23
2022-07-31T23:23:48.068Z,25.80
2022-07-31T23:26:16.511Z,26.92
2022-07-31T23:28:43.025Z,24.60
2022-07-31T23:31:09.571Z,28.27
2022-07-31T23:33:36.116Z,32.85
2022-07-31T23:36:02.829Z,31.55
2022-07-31T23:38:29.389Z,26.00
2022-07-31T23:40:56.438Z,31.42
2022-07-31T23:43:23.905Z,30.02
2022-07-31T23:45:50.949Z,34.30
2022-07-31T23:48:23.158Z,30.48
2022-07-31T23:50:55.946Z,31.30
2022-07-31T23:53:22.436Z,30.15
2022-07-31T23:55:48.987Z,32.53
2022-07-31T23:58:15.548Z,33.03
